All  160m  80m  60m  40m   30m  20m  17m  15m  12m  10m   6m  4m  2m  70cm || SSB: 20m  17m  15m  12m  10m || Search || Spot || WX
DJ4PK-Cluster page updates automatically every 10 seconds - You can also telnet into this node: dxcc.de port 4000

DX-CallQRG Date - UTCSpotterComment
IZ1PQL3728.02019-02-20 - 16:35YO3IHGl. da vinci
R3KGS3724.02019-02-20 - 16:34RN3OBAFGAN
R120MG3515.02019-02-20 - 16:34UA3RKKtnx QSO
I3JYL3675.02019-02-20 - 16:33I3WZDLEONARDO AW. 5 P
EC7AT/P3690.02019-02-20 - 16:33EC7ATcal 056 mval 015 DSM 982
IK2TTJ3680.02019-02-20 - 16:31HB9OAUL.da Vinci Awd. 5 Pt.
R120MG3515.02019-02-20 - 16:31UZ5DMtnx QSO
YO2019EU3705.02019-02-20 - 16:31YO3IHG
IK2YXH3653.02019-02-20 - 16:29HB9OAUL.da Vinci Awd. 5 Pt.
IT9ZMV3655.02019-02-20 - 16:28IT9RJQD. LEONARD--10-P
IK2YXH3653.02019-02-20 - 16:27IW2OGW5POINTS AWARD LEONARDO DA VINCI
SV8FXN3519.02019-02-20 - 16:27R3PJNhr 599 +30 db - pirat
R120MG3515.02019-02-20 - 16:27R2DA
EC7AT/P3690.02019-02-20 - 16:27EA1BKOcal-056 mval-0015 dasm sm -982
OM4AFJ3557.02019-02-20 - 16:26OK1NECW
R120MG3630.02019-02-20 - 16:26R2DOG5 Ocean
XX9D3516.02019-02-20 - 16:25LA4HIAGd Sig. Qsx abt 2 up
SV8FXN3519.02019-02-20 - 16:23UN3Ghr 599
IK2YXH3653.02019-02-20 - 16:23HB9EZDleonardo da vinci 5 p.ti
R2019LS3582.12019-02-20 - 16:22UA3RFbpsk63
YO2019EU3574.02019-02-20 - 16:22YO3JWFT8
IZ5CPK3713.02019-02-20 - 16:21IQ5MRARPI LEON.500
XX9D3515.92019-02-20 - 16:20W3LPLHeard in IA
T31EU3501.02019-02-20 - 16:20IK3SLKpse no spot. SPOT = QRM
OZ2SPACE3574.42019-02-20 - 16:20OK1AVFT8 tu 73
EU1ZOO3519.02019-02-20 - 16:20DM5EMwas fuer n Affentheater
T31EU3519.02019-02-20 - 16:18BG2AUEup5
PIRATE3519.02019-02-20 - 16:18SV3CKYusew greek call sign SV8FXN
T31EU3519.02019-02-20 - 16:17UR5IRMTNX QSO! 73! up
WARNING3519.02019-02-20 - 16:17SV3CKY..A Pirate uses the call sign SV8FXN...The real station SV8FXN does not trasmit right now
T31EU3519.02019-02-20 - 16:15SV1EOGNO SV8FXN PIRATE PIRATE
IQ1QQ/13662.02019-02-20 - 16:13I1CCAAWARD LEONARDO 500
UA6HML3604.52019-02-20 - 16:10RV6HFA
IT9ZMV3655.02019-02-20 - 16:10IT9RJQD. LEONARD--10-PUNT
DK2FG3550.52019-02-20 - 16:09OK1NECW
R120MG3724.02019-02-20 - 16:09UA4AACtnx!
IT9ZMV3655.02019-02-20 - 16:08IT9ZMVDIPLO--LEONARD--10-PUNT
VK3ATO3796.02019-02-20 - 16:07OH6NUWcq dx
T31EU3519.02019-02-20 - 16:07SV1EOG
IZ1PQL3728.02019-02-20 - 16:05IZ1LBAL. da Vinci 500 5 p.
IK2TTJ3680.02019-02-20 - 16:04IW2EASAW L.VINCI 5P
UA6HML3605.02019-02-20 - 16:04RV6HFA
IV3DBT3658.02019-02-20 - 16:04IW3RQLcq cq award Arpi st 5 p
R120MG3724.02019-02-20 - 16:03IN3BJUTNX CIAO
IZ1MLC3750.02019-02-20 - 16:02IT9RJQARPI LEONARDO DA VINCI
R120MG3724.02019-02-20 - 16:01UT3UIY73!QSL!PSE eQSL&LoTW!HNY!2019!
IZ1MLC3750.02019-02-20 - 15:58IZ2GHLARPI LEONARDO DA BVINCI 500 P.10
SV8FXN3519.02019-02-20 - 15:55UR4EZom pse pse QSY --- hr dx stn T31EU pse....
SV8FXN3519.02019-02-20 - 15:54SV8FXNHE is the sick ONE
XX9D3516.02019-02-20 - 15:54DL6KVAup 2, hvy QRN pse call 2-3 times